createdAt,value
2023-01-23T00:00:00.990Z,11.83
2023-01-23T00:02:34.096Z,12.23
2023-01-23T00:05:00.788Z,11.23
2023-01-23T00:07:34.120Z,11.97
2023-01-23T00:10:00.751Z,11.97
2023-01-23T00:12:34.130Z,11.67
2023-01-23T00:15:00.829Z,11.37
2023-01-23T00:17:34.200Z,13.07
2023-01-23T00:20:07.171Z,11.50
2023-01-23T00:22:40.184Z,13.00
2023-01-23T00:25:07.299Z,11.80
2023-01-23T00:27:34.089Z,11.80
2023-01-23T00:30:07.138Z,12.20
2023-01-23T00:32:33.779Z,11.23
2023-01-23T00:35:07.178Z,11.10
2023-01-23T00:37:33.852Z,11.37
2023-01-23T00:40:07.198Z,11.20
2023-01-23T00:42:33.831Z,20.40
2023-01-23T00:45:07.106Z,12.77
2023-01-23T00:47:33.834Z,11.70
2023-01-23T00:50:00.484Z,11.57
2023-01-23T00:52:34.103Z,12.23
2023-01-23T00:55:00.985Z,12.00
2023-01-23T00:57:35.155Z,11.50
2023-01-23T01:00:01.861Z,11.90
2023-01-23T01:02:36.153Z,11.60
2023-01-23T01:05:02.904Z,11.53
2023-01-23T01:07:36.110Z,11.53
2023-01-23T01:10:02.817Z,11.17
2023-01-23T01:12:36.170Z,12.57
2023-01-23T01:15:02.985Z,12.17
2023-01-23T01:17:36.163Z,12.47
2023-01-23T01:20:11.190Z,11.93
2023-01-23T01:22:37.857Z,11.63
2023-01-23T01:25:11.131Z,12.20
2023-01-23T01:27:44.141Z,12.97
2023-01-23T01:30:11.583Z,11.90
2023-01-23T01:32:49.203Z,12.40
2023-01-23T01:35:16.064Z,11.80
2023-01-23T01:37:42.701Z,11.83
2023-01-23T01:40:21.367Z,11.27
2023-01-23T01:43:03.152Z,11.80
2023-01-23T01:49:11.320Z,11.13
2023-01-23T01:51:57.173Z,11.57
2023-01-23T01:54:50.089Z,11.53
2023-01-23T01:57:43.541Z,12.37
2023-01-23T02:00:34.193Z,12.63
2023-01-23T02:03:07.860Z,11.13
2023-01-23T02:05:49.091Z,11.67
2023-01-23T02:08:44.967Z,10.27
2023-01-23T02:11:18.117Z,11.83
2023-01-23T02:13:52.174Z,12.17
2023-01-23T02:16:27.214Z,11.33
2023-01-23T02:18:57.640Z,11.77
2023-01-23T02:21:32.119Z,11.40
2023-01-23T02:24:29.044Z,11.63
2023-01-23T02:27:02.125Z,12.13
2023-01-23T02:29:40.863Z,12.20
2023-01-23T02:32:14.125Z,10.93
2023-01-23T02:34:42.040Z,12.63
2023-01-23T02:37:16.180Z,11.77
2023-01-23T02:39:42.943Z,11.77
2023-01-23T02:42:16.186Z,11.57
2023-01-23T02:44:42.823Z,12.27
2023-01-23T02:47:19.124Z,12.20
2023-01-23T02:49:52.141Z,12.33
2023-01-23T02:52:18.772Z,11.60
2023-01-23T02:54:52.099Z,12.50
2023-01-23T02:57:25.285Z,11.80
2023-01-23T03:00:23.122Z,12.03
2023-01-23T03:02:51.179Z,12.13
2023-01-23T03:05:25.171Z,12.63
2023-01-23T03:07:51.808Z,11.53
2023-01-23T03:10:25.165Z,11.80
2023-01-23T03:12:51.708Z,12.30
2023-01-23T03:15:18.578Z,12.13
2023-01-23T03:17:52.184Z,11.60
2023-01-23T03:20:20.251Z,12.30
2023-01-23T03:22:54.475Z,11.53
2023-01-23T03:25:21.101Z,12.13
2023-01-23T03:27:55.191Z,11.80
2023-01-23T03:30:22.152Z,12.10
2023-01-23T03:32:55.167Z,12.23
2023-01-23T03:35:21.892Z,12.07
2023-01-23T03:37:56.225Z,12.67
2023-01-23T03:40:43.439Z,11.40
2023-01-23T03:43:17.198Z,11.90
2023-01-23T03:45:43.809Z,12.13
2023-01-23T03:48:17.167Z,12.70
2023-01-23T03:50:43.813Z,11.77
2023-01-23T03:53:17.181Z,12.57
2023-01-23T03:55:47.673Z,11.57
2023-01-23T03:58:28.120Z,11.60
2023-01-23T04:01:10.257Z,13.07
2023-01-23T04:03:36.882Z,12.07
2023-01-23T04:06:10.237Z,12.30
2023-01-23T04:08:36.853Z,12.27
2023-01-23T04:11:15.234Z,11.80
2023-01-23T04:13:41.840Z,10.60
2023-01-23T04:16:15.263Z,11.63
2023-01-23T04:18:41.876Z,12.07
2023-01-23T04:21:15.213Z,11.03
2023-01-23T04:23:41.814Z,12.63
2023-01-23T04:26:15.193Z,11.33
2023-01-23T04:28:48.172Z,11.50
2023-01-23T04:31:14.878Z,11.53
2023-01-23T04:33:48.173Z,11.80
2023-01-23T04:36:14.720Z,12.20
2023-01-23T04:38:48.211Z,11.97
2023-01-23T04:41:20.403Z,11.63
2023-01-23T04:43:53.192Z,12.33
2023-01-23T04:46:19.846Z,12.40
2023-01-23T04:48:53.417Z,12.37
2023-01-23T04:51:20.139Z,12.50
2023-01-23T04:53:53.268Z,11.67
2023-01-23T04:56:19.893Z,12.07
2023-01-23T04:59:00.147Z,13.20
2023-01-23T05:01:34.254Z,11.87
2023-01-23T05:04:07.165Z,12.60
2023-01-23T05:06:40.179Z,12.03
2023-01-23T05:09:07.397Z,12.27
2023-01-23T05:11:40.227Z,12.80
2023-01-23T05:14:06.862Z,12.73
2023-01-23T05:16:40.246Z,12.90
2023-01-23T05:19:06.963Z,11.60
2023-01-23T05:21:40.222Z,12.67
2023-01-23T05:24:14.194Z,12.63
2023-01-23T05:26:47.182Z,12.30
2023-01-23T05:29:13.913Z,13.40
2023-01-23T05:31:47.266Z,13.73
2023-01-23T05:34:14.041Z,12.60
2023-01-23T05:36:47.329Z,13.90
2023-01-23T05:39:20.463Z,12.87
2023-01-23T05:41:53.186Z,13.87
2023-01-23T05:44:19.777Z,14.50
2023-01-23T05:46:46.357Z,13.10
2023-01-23T05:49:19.262Z,13.20
2023-01-23T05:51:45.870Z,14.43
2023-01-23T05:54:19.169Z,14.00
2023-01-23T05:56:45.837Z,14.00
2023-01-23T05:59:26.236Z,13.90
2023-01-23T06:01:53.032Z,13.73
2023-01-23T06:04:26.271Z,13.27
2023-01-23T06:06:52.975Z,13.60
2023-01-23T06:09:33.285Z,13.87
2023-01-23T06:12:06.261Z,14.30
2023-01-23T06:14:39.271Z,15.83
2023-01-23T06:17:13.257Z,14.03
2023-01-23T06:19:46.193Z,13.90
2023-01-23T06:22:19.210Z,14.30
2023-01-23T06:24:45.862Z,14.33
2023-01-23T06:27:19.170Z,13.43
2023-01-23T06:29:45.809Z,14.07
2023-01-23T06:32:19.240Z,14.53
2023-01-23T06:34:52.198Z,13.17
2023-01-23T06:37:25.270Z,14.10
2023-01-23T06:39:51.925Z,13.87
2023-01-23T06:42:25.210Z,13.90
2023-01-23T06:44:51.845Z,13.17
2023-01-23T06:47:27.517Z,13.40
2023-01-23T06:50:00.316Z,13.30
2023-01-23T06:52:33.286Z,13.33
2023-01-23T06:55:06.233Z,13.87
2023-01-23T06:57:34.156Z,13.97
2023-01-23T07:00:07.282Z,13.67
2023-01-23T07:02:33.941Z,13.40
2023-01-23T07:05:07.220Z,13.17
2023-01-23T07:07:33.848Z,14.50
2023-01-23T07:10:07.295Z,14.13
2023-01-23T07:12:33.932Z,13.93
2023-01-23T07:15:11.192Z,14.40
2023-01-23T07:17:44.323Z,13.87
2023-01-23T07:20:18.690Z,14.23
2023-01-23T07:22:52.266Z,14.47
2023-01-23T07:25:25.323Z,13.97
2023-01-23T07:27:51.957Z,13.80
2023-01-23T07:30:19.319Z,14.67
2023-01-23T07:32:52.308Z,14.80
2023-01-23T07:35:19.040Z,15.10
2023-01-23T07:37:52.266Z,14.50
2023-01-23T07:40:19.448Z,14.97
2023-01-23T07:42:53.312Z,15.20
2023-01-23T07:45:19.943Z,14.30
2023-01-23T07:47:53.232Z,14.90
2023-01-23T07:50:26.328Z,15.03
2023-01-23T07:52:53.819Z,14.80
2023-01-23T07:55:28.312Z,15.20
2023-01-23T07:58:02.287Z,14.77
2023-01-23T08:00:42.342Z,15.43
2023-01-23T08:03:08.963Z,14.83
2023-01-23T08:05:43.911Z,15.17
2023-01-23T08:08:13.730Z,14.60
2023-01-23T08:10:48.316Z,14.20
2023-01-23T08:13:21.291Z,14.97
2023-01-23T08:15:54.395Z,14.77
2023-01-23T08:18:21.159Z,15.27
2023-01-23T08:21:00.326Z,15.50
2023-01-23T08:23:28.683Z,15.07
2023-01-23T08:26:03.277Z,14.83
2023-01-23T08:28:30.123Z,14.33
2023-01-23T08:31:07.352Z,14.97
2023-01-23T08:33:36.004Z,14.70
2023-01-23T08:36:11.323Z,15.00
2023-01-23T08:38:38.588Z,16.33
2023-01-23T08:41:19.282Z,15.23
2023-01-23T08:43:45.911Z,16.10
2023-01-23T08:46:19.466Z,15.37
2023-01-23T08:48:46.119Z,16.50
2023-01-23T08:51:14.435Z,15.67
2023-01-23T08:53:48.306Z,16.13
2023-01-23T08:56:20.465Z,15.33
2023-01-23T08:58:54.285Z,16.23
2023-01-23T09:01:23.944Z,16.57
2023-01-23T09:03:57.396Z,15.63
2023-01-23T09:06:24.187Z,16.67
2023-01-23T09:08:57.355Z,16.93
2023-01-23T09:11:24.175Z,16.43
2023-01-23T09:13:53.732Z,15.73
2023-01-23T09:16:27.347Z,16.57
2023-01-23T09:18:55.560Z,16.93
2023-01-23T09:21:29.363Z,16.33
2023-01-23T09:23:57.121Z,15.33
2023-01-23T09:26:30.306Z,16.77
2023-01-23T09:28:56.967Z,15.57
2023-01-23T09:31:30.392Z,15.57
2023-01-23T09:33:57.925Z,15.27
2023-01-23T09:36:41.355Z,14.63
2023-01-23T09:39:15.351Z,13.93
2023-01-23T09:41:51.415Z,14.73
2023-01-23T09:45:12.298Z,15.63
2023-01-23T09:47:55.401Z,14.67
2023-01-23T09:50:28.547Z,16.27
2023-01-23T09:53:26.317Z,15.73
2023-01-23T09:56:31.703Z,15.93
2023-01-23T09:59:17.336Z,15.43
2023-01-23T10:01:44.096Z,15.33
2023-01-23T10:04:24.337Z,15.47
2023-01-23T10:07:24.289Z,15.50
2023-01-23T10:10:04.655Z,15.00
2023-01-23T10:12:42.281Z,13.90
2023-01-23T10:15:21.669Z,14.40
2023-01-23T10:18:02.091Z,14.80
2023-01-23T10:20:53.491Z,14.33
2023-01-23T10:23:46.874Z,14.00
2023-01-23T10:26:30.738Z,13.07
2023-01-23T10:29:10.461Z,14.70
2023-01-23T10:31:52.461Z,13.30
2023-01-23T10:34:34.349Z,13.60
2023-01-23T10:37:26.382Z,13.27
2023-01-23T10:40:06.435Z,12.70
2023-01-23T10:42:39.406Z,11.90
2023-01-23T10:45:07.220Z,12.40
2023-01-23T10:47:55.161Z,13.27
2023-01-23T10:50:39.786Z,12.83
2023-01-23T10:53:22.381Z,11.57
2023-01-23T10:55:59.333Z,12.23
2023-01-23T10:58:49.444Z,12.30
2023-01-23T11:01:34.500Z,12.43
2023-01-23T11:04:28.318Z,11.90
2023-01-23T11:07:11.957Z,12.47
2023-01-23T11:09:59.380Z,12.37
2023-01-23T11:12:32.739Z,13.20
2023-01-23T11:15:28.332Z,13.00
2023-01-23T11:18:03.392Z,12.63
2023-01-23T11:20:46.337Z,12.87
2023-01-23T11:23:24.445Z,12.27
2023-01-23T11:25:59.395Z,11.73
2023-01-23T11:28:35.097Z,12.13
2023-01-23T11:31:26.518Z,12.77
2023-01-23T11:34:12.562Z,12.40
2023-01-23T11:37:01.378Z,13.60
2023-01-23T11:39:48.905Z,12.30
2023-01-23T11:42:22.325Z,12.43
2023-01-23T11:44:57.445Z,13.20
2023-01-23T11:47:55.517Z,13.03
2023-01-23T11:50:49.993Z,12.40
2023-01-23T11:53:42.421Z,13.20
2023-01-23T11:56:39.626Z,12.27
2023-01-23T11:59:51.345Z,12.27
2023-01-23T12:02:53.420Z,12.87
2023-01-23T12:05:32.392Z,13.03
2023-01-23T12:08:20.397Z,12.27
2023-01-23T12:10:56.557Z,12.43
2023-01-23T12:14:10.345Z,12.13
2023-01-23T12:16:45.381Z,14.63
2023-01-23T12:19:27.407Z,13.83
2023-01-23T12:22:21.399Z,11.90
2023-01-23T12:25:02.171Z,12.17
2023-01-23T12:27:47.566Z,11.83
2023-01-23T12:30:20.789Z,11.90
2023-01-23T12:33:22.387Z,12.13
2023-01-23T12:35:51.714Z,11.70
2023-01-23T12:38:24.427Z,13.33
2023-01-23T12:41:08.420Z,11.33
2023-01-23T12:43:57.402Z,12.43
2023-01-23T12:46:34.150Z,12.37
2023-01-23T12:49:26.514Z,13.10
2023-01-23T12:52:07.370Z,12.47
2023-01-23T12:55:03.656Z,12.83
2023-01-23T13:00:50.453Z,12.93
2023-01-23T13:03:46.233Z,14.57
2023-01-23T13:06:31.429Z,13.50
2023-01-23T13:09:18.365Z,12.90
2023-01-23T13:12:11.743Z,13.97
2023-01-23T13:17:38.540Z,14.20
2023-01-23T13:20:54.476Z,12.97
2023-01-23T13:23:21.090Z,13.37
2023-01-23T13:25:55.763Z,12.90
2023-01-23T13:28:44.858Z,13.00
2023-01-23T13:31:41.588Z,12.93
2023-01-23T13:34:17.796Z,12.73
2023-01-23T13:36:52.426Z,12.90
2023-01-23T13:39:29.049Z,12.63
2023-01-23T13:42:20.413Z,12.63
2023-01-23T13:45:19.726Z,12.10
2023-01-23T14:22:45.214Z,11.80
2023-01-23T14:25:25.896Z,12.93
2023-01-23T14:28:12.458Z,11.40
2023-01-23T14:30:45.489Z,11.33
2023-01-23T14:33:17.759Z,12.67
2023-01-23T14:35:52.516Z,12.63
2023-01-23T14:38:36.430Z,12.30
2023-01-23T14:41:06.151Z,11.77
2023-01-23T14:43:41.505Z,12.50
2023-01-23T14:46:33.569Z,12.37
2023-01-23T14:49:06.408Z,11.87
2023-01-23T14:51:33.261Z,12.50
2023-01-23T14:54:10.868Z,12.10
2023-01-23T14:56:46.511Z,13.17
2023-01-23T14:59:29.512Z,12.53
2023-01-23T15:01:58.505Z,12.43
2023-01-23T15:04:34.444Z,12.70
2023-01-23T15:07:03.037Z,12.40
2023-01-23T15:09:47.492Z,13.07
2023-01-23T15:12:18.924Z,13.07
2023-01-23T15:14:52.442Z,12.17
2023-01-23T15:17:21.117Z,12.20
2023-01-23T15:20:01.494Z,12.83
2023-01-23T15:22:36.515Z,11.97
2023-01-23T15:25:57.489Z,12.10
2023-01-23T15:28:46.508Z,12.07
2023-01-23T15:31:53.565Z,11.57
2023-01-23T15:34:32.916Z,11.70
2023-01-23T15:37:28.501Z,11.60
2023-01-23T15:39:55.184Z,12.17
2023-01-23T15:42:31.437Z,11.10
2023-01-23T15:45:01.434Z,12.73
2023-01-23T15:47:36.481Z,11.70
2023-01-23T15:50:03.345Z,12.43
2023-01-23T15:52:54.482Z,12.57
2023-01-23T15:55:32.441Z,12.00
2023-01-23T15:57:59.064Z,12.27
2023-01-23T16:00:38.579Z,12.20
2023-01-23T16:03:05.442Z,12.40
2023-01-23T16:05:42.483Z,12.03
2023-01-23T16:08:28.588Z,12.97
2023-01-23T16:11:02.932Z,11.73
2023-01-23T16:13:29.800Z,11.97
2023-01-23T16:16:06.576Z,11.90
2023-01-23T16:18:39.512Z,12.70
2023-01-23T16:21:06.477Z,12.70
2023-01-23T16:23:47.322Z,13.53
2023-01-23T16:26:21.012Z,16.07
2023-01-23T16:29:05.058Z,15.10
2023-01-23T16:31:45.625Z,17.53
2023-01-23T16:34:18.533Z,19.23
2023-01-23T16:36:52.549Z,18.43
2023-01-23T16:39:22.330Z,23.30
2023-01-23T16:41:55.542Z,21.50
2023-01-23T16:44:30.585Z,22.13
2023-01-23T16:46:57.433Z,23.17
2023-01-23T16:49:32.787Z,23.27
2023-01-23T16:52:01.785Z,20.63
2023-01-23T16:54:35.490Z,17.97
2023-01-23T16:57:02.730Z,13.07
2023-01-23T16:59:46.517Z,11.77
2023-01-23T17:02:37.582Z,12.60
2023-01-23T17:05:04.511Z,11.30
2023-01-23T17:07:37.518Z,11.00
2023-01-23T17:10:10.540Z,11.40
2023-01-23T17:12:37.335Z,11.23
2023-01-23T17:15:11.513Z,11.20
2023-01-23T17:17:38.495Z,11.53
2023-01-23T17:20:12.725Z,11.57
2023-01-23T17:22:48.597Z,10.63
2023-01-23T17:25:30.532Z,11.40
2023-01-23T17:28:11.908Z,11.63
2023-01-23T17:30:47.606Z,10.97
2023-01-23T17:33:20.274Z,11.50
2023-01-23T17:35:55.528Z,11.27
2023-01-23T17:38:34.599Z,11.77
2023-01-23T17:41:02.133Z,11.10
2023-01-23T17:43:35.565Z,11.90
2023-01-23T17:46:02.438Z,12.37
2023-01-23T17:48:31.597Z,12.13
2023-01-23T17:51:05.521Z,13.63
2023-01-23T17:53:32.301Z,12.73
2023-01-23T17:56:05.543Z,12.70
2023-01-23T17:58:32.349Z,13.73
2023-01-23T18:01:06.740Z,14.23
2023-01-23T18:03:33.656Z,13.80
2023-01-23T18:06:06.533Z,13.97
2023-01-23T18:08:33.357Z,13.47
2023-01-23T18:11:07.526Z,13.10
2023-01-23T18:13:39.457Z,13.30
2023-01-23T18:16:32.597Z,13.27
2023-01-23T18:19:05.636Z,13.10
2023-01-23T18:21:39.611Z,13.07
2023-01-23T18:24:06.954Z,13.33
2023-01-23T18:26:58.553Z,12.57
2023-01-23T18:29:31.257Z,13.13
2023-01-23T18:32:46.561Z,13.17
2023-01-23T18:35:50.347Z,12.00
2023-01-23T18:39:06.553Z,12.93
2023-01-23T18:41:33.525Z,13.10
2023-01-23T18:44:30.546Z,13.00
2023-01-23T18:46:57.376Z,13.63
2023-01-23T18:49:33.003Z,13.63
2023-01-23T18:52:09.822Z,13.10
2023-01-23T18:55:00.513Z,13.40
2023-01-23T18:57:32.291Z,14.53
2023-01-23T19:00:21.669Z,14.23
2023-01-23T19:03:16.737Z,14.20
2023-01-23T19:05:50.675Z,13.53
2023-01-23T19:08:30.825Z,15.13
2023-01-23T19:11:13.629Z,14.43
2023-01-23T19:14:06.397Z,14.20
2023-01-23T19:16:42.529Z,14.67
2023-01-23T19:19:31.645Z,13.70
2023-01-23T19:22:05.606Z,14.80
2023-01-23T19:24:32.461Z,14.57
2023-01-23T19:27:05.575Z,15.83
2023-01-23T19:29:32.511Z,15.67
2023-01-23T19:32:12.683Z,14.77
2023-01-23T19:34:46.611Z,15.20
2023-01-23T19:37:21.608Z,15.70
2023-01-23T19:39:48.324Z,16.50
2023-01-23T19:42:22.563Z,15.77
2023-01-23T19:44:49.296Z,16.10
2023-01-23T19:47:22.561Z,16.50
2023-01-23T19:49:49.208Z,15.60
2023-01-23T19:52:16.650Z,15.43
2023-01-23T19:54:49.611Z,15.83
2023-01-23T19:57:16.280Z,15.70
2023-01-23T19:59:49.600Z,15.57
2023-01-23T20:02:25.350Z,15.47
2023-01-23T20:04:58.624Z,16.27
2023-01-23T20:07:25.237Z,16.43
2023-01-23T20:09:58.598Z,14.87
2023-01-23T20:12:25.318Z,13.90
2023-01-23T20:14:58.662Z,14.50
2023-01-23T20:17:25.347Z,14.77
2023-01-23T20:19:59.581Z,15.13
2023-01-23T20:22:32.612Z,15.20
2023-01-23T20:24:59.255Z,14.93
2023-01-23T20:27:32.562Z,14.63
2023-01-23T20:29:59.280Z,14.67
2023-01-23T20:32:32.606Z,15.50
2023-01-23T20:34:59.947Z,15.60
2023-01-23T20:37:34.659Z,15.03
2023-01-23T20:40:01.499Z,15.17
2023-01-23T20:42:34.553Z,14.23
2023-01-23T20:45:07.613Z,15.63
2023-01-23T20:47:36.199Z,15.47
2023-01-23T20:50:09.674Z,15.03
2023-01-23T20:52:55.258Z,14.70
2023-01-23T20:55:28.631Z,15.57
2023-01-23T20:58:13.807Z,15.07
2023-01-23T21:00:46.609Z,14.77
2023-01-23T21:03:26.646Z,14.30
2023-01-23T21:05:59.630Z,15.33
2023-01-23T21:08:26.311Z,15.10
2023-01-23T21:11:00.607Z,14.30
2023-01-23T21:13:27.175Z,15.40
2023-01-23T21:16:09.652Z,15.53
2023-01-23T21:18:38.315Z,14.27
2023-01-23T21:21:13.636Z,15.47
2023-01-23T21:23:40.393Z,15.63
2023-01-23T21:26:13.719Z,15.03
2023-01-23T21:28:40.447Z,15.37
2023-01-23T21:31:18.716Z,15.97
2023-01-23T21:33:46.508Z,15.67
2023-01-23T21:36:21.653Z,17.03
2023-01-23T21:38:55.758Z,16.47
2023-01-23T21:41:29.666Z,17.70
2023-01-23T21:43:56.316Z,15.70
2023-01-23T21:46:29.643Z,16.67
2023-01-23T21:49:02.619Z,16.50
2023-01-23T21:51:35.674Z,16.33
2023-01-23T21:54:02.279Z,16.73
2023-01-23T21:56:35.596Z,16.27
2023-01-23T21:59:08.674Z,15.23
2023-01-23T22:01:48.802Z,16.87
2023-01-23T22:04:24.665Z,16.70
2023-01-23T22:06:55.387Z,16.10
2023-01-23T22:09:33.669Z,15.93
2023-01-23T22:12:00.254Z,16.27
2023-01-23T22:14:33.651Z,16.23
2023-01-23T22:17:00.361Z,16.67
2023-01-23T22:19:27.225Z,17.00
2023-01-23T22:22:03.611Z,15.97
2023-01-23T22:24:30.699Z,17.10
2023-01-23T22:27:03.635Z,14.97
2023-01-23T22:29:30.252Z,16.87
2023-01-23T22:31:57.050Z,16.97
2023-01-23T22:34:30.613Z,16.43
2023-01-23T22:37:03.697Z,17.50
2023-01-23T22:39:30.449Z,16.43
2023-01-23T22:42:04.687Z,15.73
2023-01-23T22:44:31.614Z,16.33
2023-01-23T22:46:58.254Z,17.13
2023-01-23T22:49:31.655Z,16.20
2023-01-23T22:51:58.365Z,16.67
2023-01-23T22:54:31.627Z,15.73
2023-01-23T22:56:58.211Z,17.00
2023-01-23T22:59:31.702Z,16.00
2023-01-23T23:02:11.658Z,16.00
2023-01-23T23:04:38.313Z,15.73
2023-01-23T23:07:05.060Z,17.17
2023-01-23T23:09:38.718Z,16.47
2023-01-23T23:12:05.604Z,17.67
2023-01-23T23:14:38.647Z,17.00
2023-01-23T23:17:11.791Z,16.77
2023-01-23T23:19:39.035Z,17.27
2023-01-23T23:22:12.681Z,16.30
2023-01-23T23:24:39.285Z,15.87
2023-01-23T23:27:12.709Z,17.17
2023-01-23T23:29:39.351Z,16.97
2023-01-23T23:32:12.766Z,16.23
2023-01-23T23:34:45.667Z,15.37
2023-01-23T23:37:12.240Z,16.27
2023-01-23T23:39:45.628Z,16.33
2023-01-23T23:42:12.219Z,16.93
2023-01-23T23:44:45.648Z,15.73
2023-01-23T23:47:12.227Z,17.13
2023-01-23T23:49:45.679Z,15.40
2023-01-23T23:52:12.235Z,15.50
2023-01-23T23:54:45.698Z,14.70
2023-01-23T23:57:18.685Z,15.07
2023-01-23T23:59:51.669Z,14.60
